sensor_id;sensor_type;location;lat;lon;timestamp;P1;durP1;ratioP1;P2;durP2;ratioP2
24799;SDS011;12897;50.812;4.430;2023-02-15T00:00:41;78.33;;;34.40;;
24799;SDS011;12897;50.812;4.430;2023-02-15T00:03:11;69.60;;;34.15;;
24799;SDS011;12897;50.812;4.430;2023-02-15T00:08:30;76.45;;;35.68;;
24799;SDS011;12897;50.812;4.430;2023-02-15T00:11:08;75.78;;;34.63;;
24799;SDS011;12897;50.812;4.430;2023-02-15T00:13:43;82.15;;;36.48;;
24799;SDS011;12897;50.812;4.430;2023-02-15T00:16:14;80.42;;;37.60;;
24799;SDS011;12897;50.812;4.430;2023-02-15T00:18:51;87.15;;;36.03;;
24799;SDS011;12897;50.812;4.430;2023-02-15T00:21:28;79.83;;;37.03;;
24799;SDS011;12897;50.812;4.430;2023-02-15T00:24:07;75.52;;;35.60;;
24799;SDS011;12897;50.812;4.430;2023-02-15T00:26:43;78.42;;;36.85;;
24799;SDS011;12897;50.812;4.430;2023-02-15T00:29:20;82.92;;;35.68;;
24799;SDS011;12897;50.812;4.430;2023-02-15T00:31:47;76.33;;;35.03;;
24799;SDS011;12897;50.812;4.430;2023-02-15T00:34:18;82.65;;;38.85;;
24799;SDS011;12897;50.812;4.430;2023-02-15T00:36:47;81.42;;;36.13;;
24799;SDS011;12897;50.812;4.430;2023-02-15T00:39:17;79.05;;;38.70;;
24799;SDS011;12897;50.812;4.430;2023-02-15T00:41:46;88.07;;;39.98;;
24799;SDS011;12897;50.812;4.430;2023-02-15T00:44:16;86.72;;;38.63;;
24799;SDS011;12897;50.812;4.430;2023-02-15T00:46:47;85.70;;;39.58;;
24799;SDS011;12897;50.812;4.430;2023-02-15T00:49:16;80.47;;;40.17;;
24799;SDS011;12897;50.812;4.430;2023-02-15T00:51:50;83.10;;;39.43;;
24799;SDS011;12897;50.812;4.430;2023-02-15T00:54:17;87.37;;;40.07;;
24799;SDS011;12897;50.812;4.430;2023-02-15T00:56:54;86.22;;;40.58;;
24799;SDS011;12897;50.812;4.430;2023-02-15T00:59:21;87.27;;;40.43;;
24799;SDS011;12897;50.812;4.430;2023-02-15T01:02:03;86.45;;;40.80;;
24799;SDS011;12897;50.812;4.430;2023-02-15T01:04:20;89.83;;;40.30;;
24799;SDS011;12897;50.812;4.430;2023-02-15T01:06:49;86.63;;;40.10;;
24799;SDS011;12897;50.812;4.430;2023-02-15T01:09:17;88.07;;;39.80;;
24799;SDS011;12897;50.812;4.430;2023-02-15T01:11:47;86.12;;;40.15;;
24799;SDS011;12897;50.812;4.430;2023-02-15T01:14:22;91.87;;;39.67;;
24799;SDS011;12897;50.812;4.430;2023-02-15T01:16:50;76.60;;;36.63;;
24799;SDS011;12897;50.812;4.430;2023-02-15T01:19:19;85.12;;;37.98;;
24799;SDS011;12897;50.812;4.430;2023-02-15T01:21:51;79.30;;;37.17;;
24799;SDS011;12897;50.812;4.430;2023-02-15T01:24:30;86.67;;;40.00;;
24799;SDS011;12897;50.812;4.430;2023-02-15T01:26:58;85.47;;;38.58;;
24799;SDS011;12897;50.812;4.430;2023-02-15T01:29:22;82.90;;;38.78;;
24799;SDS011;12897;50.812;4.430;2023-02-15T01:32:00;80.85;;;38.60;;
24799;SDS011;12897;50.812;4.430;2023-02-15T01:34:38;90.83;;;40.73;;
24799;SDS011;12897;50.812;4.430;2023-02-15T01:37:10;81.85;;;37.83;;
24799;SDS011;12897;50.812;4.430;2023-02-15T01:39:46;83.65;;;40.40;;
24799;SDS011;12897;50.812;4.430;2023-02-15T01:42:24;85.87;;;41.88;;
24799;SDS011;12897;50.812;4.430;2023-02-15T01:50:45;87.57;;;42.62;;
24799;SDS011;12897;50.812;4.430;2023-02-15T01:58:34;86.57;;;39.75;;
24799;SDS011;12897;50.812;4.430;2023-02-15T02:01:07;94.55;;;41.50;;
24799;SDS011;12897;50.812;4.430;2023-02-15T02:03:49;90.50;;;39.75;;
24799;SDS011;12897;50.812;4.430;2023-02-15T02:06:37;80.07;;;38.45;;
24799;SDS011;12897;50.812;4.430;2023-02-15T02:09:10;87.33;;;36.88;;
24799;SDS011;12897;50.812;4.430;2023-02-15T02:14:11;86.47;;;39.40;;
24799;SDS011;12897;50.812;4.430;2023-02-15T02:19:26;79.00;;;37.40;;
24799;SDS011;12897;50.812;4.430;2023-02-15T02:22:07;83.95;;;38.13;;
24799;SDS011;12897;50.812;4.430;2023-02-15T02:27:43;83.82;;;37.83;;
24799;SDS011;12897;50.812;4.430;2023-02-15T02:32:59;77.82;;;37.25;;
24799;SDS011;12897;50.812;4.430;2023-02-15T02:35:44;84.42;;;39.35;;
24799;SDS011;12897;50.812;4.430;2023-02-15T02:44:16;87.92;;;41.45;;
24799;SDS011;12897;50.812;4.430;2023-02-15T02:46:17;87.22;;;39.25;;
24799;SDS011;12897;50.812;4.430;2023-02-15T02:48:53;86.95;;;39.25;;
24799;SDS011;12897;50.812;4.430;2023-02-15T02:51:19;84.25;;;39.38;;
24799;SDS011;12897;50.812;4.430;2023-02-15T02:53:53;79.30;;;37.33;;
24799;SDS011;12897;50.812;4.430;2023-02-15T02:56:38;84.83;;;38.70;;
24799;SDS011;12897;50.812;4.430;2023-02-15T03:02:10;85.97;;;37.90;;
24799;SDS011;12897;50.812;4.430;2023-02-15T03:04:21;81.53;;;37.23;;
24799;SDS011;12897;50.812;4.430;2023-02-15T03:09:35;84.52;;;38.28;;
24799;SDS011;12897;50.812;4.430;2023-02-15T03:12:03;82.90;;;37.42;;
24799;SDS011;12897;50.812;4.430;2023-02-15T03:14:35;83.80;;;37.08;;
24799;SDS011;12897;50.812;4.430;2023-02-15T03:17:06;87.47;;;39.05;;
24799;SDS011;12897;50.812;4.430;2023-02-15T03:19:38;80.15;;;35.35;;
24799;SDS011;12897;50.812;4.430;2023-02-15T03:22:18;78.72;;;36.63;;
24799;SDS011;12897;50.812;4.430;2023-02-15T03:27:33;84.07;;;36.95;;
24799;SDS011;12897;50.812;4.430;2023-02-15T03:30:03;89.00;;;37.00;;
24799;SDS011;12897;50.812;4.430;2023-02-15T03:35:03;72.87;;;33.63;;
24799;SDS011;12897;50.812;4.430;2023-02-15T03:38:00;80.00;;;36.28;;
24799;SDS011;12897;50.812;4.430;2023-02-15T03:40:41;84.83;;;36.73;;
24799;SDS011;12897;50.812;4.430;2023-02-15T03:46:39;83.05;;;36.05;;
24799;SDS011;12897;50.812;4.430;2023-02-15T03:51:51;76.75;;;36.30;;
24799;SDS011;12897;50.812;4.430;2023-02-15T03:54:29;79.03;;;36.85;;
24799;SDS011;12897;50.812;4.430;2023-02-15T04:00:09;80.00;;;35.78;;
24799;SDS011;12897;50.812;4.430;2023-02-15T04:05:58;82.17;;;36.95;;
24799;SDS011;12897;50.812;4.430;2023-02-15T04:08:30;78.85;;;35.92;;
24799;SDS011;12897;50.812;4.430;2023-02-15T04:11:16;84.10;;;36.35;;
24799;SDS011;12897;50.812;4.430;2023-02-15T04:13:45;80.60;;;38.20;;
24799;SDS011;12897;50.812;4.430;2023-02-15T04:16:16;87.10;;;36.28;;
24799;SDS011;12897;50.812;4.430;2023-02-15T04:18:43;90.05;;;37.90;;
24799;SDS011;12897;50.812;4.430;2023-02-15T04:21:34;80.62;;;35.88;;
24799;SDS011;12897;50.812;4.430;2023-02-15T04:24:18;74.62;;;35.23;;
24799;SDS011;12897;50.812;4.430;2023-02-15T04:27:06;80.40;;;36.20;;
24799;SDS011;12897;50.812;4.430;2023-02-15T04:29:35;81.87;;;35.05;;
24799;SDS011;12897;50.812;4.430;2023-02-15T04:32:08;73.78;;;35.03;;
24799;SDS011;12897;50.812;4.430;2023-02-15T04:34:46;80.27;;;34.60;;
24799;SDS011;12897;50.812;4.430;2023-02-15T04:37:01;74.50;;;34.00;;
24799;SDS011;12897;50.812;4.430;2023-02-15T04:39:29;81.87;;;35.05;;
24799;SDS011;12897;50.812;4.430;2023-02-15T04:44:35;74.42;;;34.10;;
24799;SDS011;12897;50.812;4.430;2023-02-15T04:52:43;88.72;;;39.35;;
24799;SDS011;12897;50.812;4.430;2023-02-15T04:55:17;85.28;;;35.58;;
24799;SDS011;12897;50.812;4.430;2023-02-15T05:00:54;83.50;;;37.95;;
24799;SDS011;12897;50.812;4.430;2023-02-15T05:03:58;81.40;;;37.13;;
24799;SDS011;12897;50.812;4.430;2023-02-15T05:06:22;81.30;;;37.00;;
24799;SDS011;12897;50.812;4.430;2023-02-15T05:08:51;84.50;;;38.85;;
24799;SDS011;12897;50.812;4.430;2023-02-15T05:11:22;87.10;;;41.15;;
24799;SDS011;12897;50.812;4.430;2023-02-15T05:14:00;85.30;;;40.30;;
24799;SDS011;12897;50.812;4.430;2023-02-15T05:16:33;78.67;;;36.55;;
24799;SDS011;12897;50.812;4.430;2023-02-15T05:19:03;87.47;;;38.70;;
24799;SDS011;12897;50.812;4.430;2023-02-15T05:21:31;87.78;;;37.15;;
24799;SDS011;12897;50.812;4.430;2023-02-15T05:24:02;81.28;;;37.55;;
24799;SDS011;12897;50.812;4.430;2023-02-15T05:26:30;79.70;;;36.15;;
24799;SDS011;12897;50.812;4.430;2023-02-15T05:29:18;80.22;;;37.53;;
24799;SDS011;12897;50.812;4.430;2023-02-15T05:31:52;82.47;;;38.15;;
24799;SDS011;12897;50.812;4.430;2023-02-15T05:34:18;83.45;;;40.17;;
24799;SDS011;12897;50.812;4.430;2023-02-15T05:36:47;86.50;;;37.67;;
24799;SDS011;12897;50.812;4.430;2023-02-15T05:39:15;86.82;;;38.10;;
24799;SDS011;12897;50.812;4.430;2023-02-15T05:41:43;84.60;;;40.25;;
24799;SDS011;12897;50.812;4.430;2023-02-15T05:44:11;88.40;;;42.83;;
24799;SDS011;12897;50.812;4.430;2023-02-15T05:46:38;89.13;;;40.28;;
24799;SDS011;12897;50.812;4.430;2023-02-15T05:49:12;80.60;;;37.13;;
24799;SDS011;12897;50.812;4.430;2023-02-15T05:51:39;90.42;;;40.95;;
24799;SDS011;12897;50.812;4.430;2023-02-15T05:54:09;84.73;;;40.40;;
24799;SDS011;12897;50.812;4.430;2023-02-15T05:56:36;87.50;;;43.35;;
24799;SDS011;12897;50.812;4.430;2023-02-15T05:59:05;85.72;;;38.65;;
24799;SDS011;12897;50.812;4.430;2023-02-15T06:01:34;78.35;;;38.65;;
24799;SDS011;12897;50.812;4.430;2023-02-15T06:04:02;91.45;;;39.05;;
24799;SDS011;12897;50.812;4.430;2023-02-15T06:06:30;82.00;;;36.98;;
24799;SDS011;12897;50.812;4.430;2023-02-15T06:11:26;83.17;;;38.83;;
24799;SDS011;12897;50.812;4.430;2023-02-15T06:13:54;92.20;;;38.83;;
24799;SDS011;12897;50.812;4.430;2023-02-15T06:16:22;84.22;;;39.33;;
24799;SDS011;12897;50.812;4.430;2023-02-15T06:19:00;77.40;;;39.03;;
24799;SDS011;12897;50.812;4.430;2023-02-15T06:21:28;85.25;;;39.65;;
24799;SDS011;12897;50.812;4.430;2023-02-15T06:23:56;91.20;;;42.40;;
24799;SDS011;12897;50.812;4.430;2023-02-15T06:26:25;89.30;;;42.78;;
24799;SDS011;12897;50.812;4.430;2023-02-15T06:28:54;91.08;;;41.37;;
24799;SDS011;12897;50.812;4.430;2023-02-15T06:31:22;91.40;;;39.20;;
24799;SDS011;12897;50.812;4.430;2023-02-15T06:36:22;96.47;;;39.58;;
24799;SDS011;12897;50.812;4.430;2023-02-15T06:38:51;103.42;;;40.38;;
24799;SDS011;12897;50.812;4.430;2023-02-15T06:41:19;92.35;;;39.03;;
24799;SDS011;12897;50.812;4.430;2023-02-15T06:43:48;87.47;;;39.67;;
24799;SDS011;12897;50.812;4.430;2023-02-15T06:46:17;95.67;;;41.33;;
24799;SDS011;12897;50.812;4.430;2023-02-15T06:48:45;92.53;;;39.33;;
24799;SDS011;12897;50.812;4.430;2023-02-15T06:51:20;81.28;;;38.02;;
24799;SDS011;12897;50.812;4.430;2023-02-15T06:53:45;131.63;;;49.90;;
24799;SDS011;12897;50.812;4.430;2023-02-15T06:56:14;90.72;;;38.65;;
24799;SDS011;12897;50.812;4.430;2023-02-15T06:58:44;86.67;;;41.00;;
24799;SDS011;12897;50.812;4.430;2023-02-15T07:01:16;90.40;;;41.02;;
24799;SDS011;12897;50.812;4.430;2023-02-15T07:03:45;93.80;;;41.02;;
24799;SDS011;12897;50.812;4.430;2023-02-15T07:06:11;99.30;;;38.63;;
24799;SDS011;12897;50.812;4.430;2023-02-15T07:08:40;111.63;;;45.27;;
24799;SDS011;12897;50.812;4.430;2023-02-15T07:11:09;116.15;;;49.53;;
24799;SDS011;12897;50.812;4.430;2023-02-15T07:13:55;99.92;;;39.45;;
24799;SDS011;12897;50.812;4.430;2023-02-15T07:16:24;88.12;;;39.20;;
24799;SDS011;12897;50.812;4.430;2023-02-15T07:18:52;97.22;;;39.98;;
24799;SDS011;12897;50.812;4.430;2023-02-15T07:21:24;105.00;;;43.10;;
24799;SDS011;12897;50.812;4.430;2023-02-15T07:23:57;101.58;;;43.45;;
24799;SDS011;12897;50.812;4.430;2023-02-15T07:26:24;98.82;;;43.23;;
24799;SDS011;12897;50.812;4.430;2023-02-15T07:28:53;110.10;;;45.80;;
24799;SDS011;12897;50.812;4.430;2023-02-15T07:31:23;85.70;;;40.75;;
24799;SDS011;12897;50.812;4.430;2023-02-15T07:33:50;91.55;;;41.15;;
24799;SDS011;12897;50.812;4.430;2023-02-15T07:36:18;96.35;;;41.35;;
24799;SDS011;12897;50.812;4.430;2023-02-15T07:38:47;108.75;;;41.83;;
24799;SDS011;12897;50.812;4.430;2023-02-15T07:41:15;99.37;;;41.33;;
24799;SDS011;12897;50.812;4.430;2023-02-15T07:43:44;94.17;;;40.73;;
24799;SDS011;12897;50.812;4.430;2023-02-15T07:46:14;96.30;;;41.35;;
24799;SDS011;12897;50.812;4.430;2023-02-15T07:48:43;107.27;;;42.93;;
24799;SDS011;12897;50.812;4.430;2023-02-15T07:51:16;100.65;;;42.70;;
24799;SDS011;12897;50.812;4.430;2023-02-15T07:56:12;101.72;;;39.67;;
24799;SDS011;12897;50.812;4.430;2023-02-15T07:58:42;103.85;;;41.73;;
24799;SDS011;12897;50.812;4.430;2023-02-15T08:01:24;109.52;;;41.02;;
24799;SDS011;12897;50.812;4.430;2023-02-15T08:03:58;119.80;;;41.85;;
24799;SDS011;12897;50.812;4.430;2023-02-15T08:06:27;116.95;;;42.60;;
24799;SDS011;12897;50.812;4.430;2023-02-15T08:08:56;99.25;;;41.80;;
24799;SDS011;12897;50.812;4.430;2023-02-15T08:11:25;101.53;;;42.43;;
24799;SDS011;12897;50.812;4.430;2023-02-15T08:14:03;105.95;;;42.70;;
24799;SDS011;12897;50.812;4.430;2023-02-15T08:16:39;98.75;;;41.20;;
24799;SDS011;12897;50.812;4.430;2023-02-15T08:19:09;101.25;;;41.30;;
24799;SDS011;12897;50.812;4.430;2023-02-15T08:21:40;91.85;;;42.62;;
24799;SDS011;12897;50.812;4.430;2023-02-15T08:24:10;91.87;;;41.60;;
24799;SDS011;12897;50.812;4.430;2023-02-15T08:26:38;89.90;;;42.85;;
24799;SDS011;12897;50.812;4.430;2023-02-15T08:29:07;88.62;;;42.78;;
24799;SDS011;12897;50.812;4.430;2023-02-15T08:31:35;85.85;;;39.70;;
24799;SDS011;12897;50.812;4.430;2023-02-15T08:34:03;92.80;;;41.28;;
24799;SDS011;12897;50.812;4.430;2023-02-15T08:36:31;85.03;;;42.17;;
24799;SDS011;12897;50.812;4.430;2023-02-15T08:39:00;91.60;;;44.73;;
24799;SDS011;12897;50.812;4.430;2023-02-15T08:41:36;103.02;;;46.68;;
24799;SDS011;12897;50.812;4.430;2023-02-15T08:44:05;96.05;;;45.28;;
24799;SDS011;12897;50.812;4.430;2023-02-15T08:46:36;103.55;;;46.68;;
24799;SDS011;12897;50.812;4.430;2023-02-15T08:51:34;84.97;;;40.67;;
24799;SDS011;12897;50.812;4.430;2023-02-15T08:54:05;90.42;;;44.53;;
24799;SDS011;12897;50.812;4.430;2023-02-15T08:56:36;95.28;;;43.75;;
24799;SDS011;12897;50.812;4.430;2023-02-15T08:59:05;93.70;;;44.05;;
24799;SDS011;12897;50.812;4.430;2023-02-15T09:01:35;92.12;;;41.50;;
24799;SDS011;12897;50.812;4.430;2023-02-15T09:04:08;87.97;;;41.83;;
24799;SDS011;12897;50.812;4.430;2023-02-15T09:06:34;87.60;;;42.98;;
24799;SDS011;12897;50.812;4.430;2023-02-15T09:09:03;99.15;;;41.63;;
24799;SDS011;12897;50.812;4.430;2023-02-15T09:11:33;80.15;;;36.70;;
24799;SDS011;12897;50.812;4.430;2023-02-15T09:14:03;64.72;;;32.78;;
24799;SDS011;12897;50.812;4.430;2023-02-15T09:16:34;69.42;;;30.25;;
24799;SDS011;12897;50.812;4.430;2023-02-15T09:19:04;71.53;;;31.27;;
24799;SDS011;12897;50.812;4.430;2023-02-15T09:21:32;65.30;;;30.30;;
24799;SDS011;12897;50.812;4.430;2023-02-15T09:26:31;59.98;;;26.25;;
24799;SDS011;12897;50.812;4.430;2023-02-15T09:29:01;55.73;;;26.50;;
24799;SDS011;12897;50.812;4.430;2023-02-15T09:31:30;64.35;;;25.80;;
24799;SDS011;12897;50.812;4.430;2023-02-15T09:34:16;54.27;;;25.43;;
24799;SDS011;12897;50.812;4.430;2023-02-15T09:36:45;54.93;;;25.70;;
24799;SDS011;12897;50.812;4.430;2023-02-15T09:39:14;55.85;;;27.17;;
24799;SDS011;12897;50.812;4.430;2023-02-15T09:44:43;61.80;;;26.42;;
24799;SDS011;12897;50.812;4.430;2023-02-15T09:52:48;55.92;;;25.30;;
24799;SDS011;12897;50.812;4.430;2023-02-15T09:55:38;60.90;;;25.90;;
24799;SDS011;12897;50.812;4.430;2023-02-15T10:03:42;52.98;;;24.80;;
24799;SDS011;12897;50.812;4.430;2023-02-15T10:06:32;59.20;;;26.52;;
24799;SDS011;12897;50.812;4.430;2023-02-15T10:09:02;58.90;;;25.50;;
24799;SDS011;12897;50.812;4.430;2023-02-15T10:28:06;54.55;;;25.10;;
24799;SDS011;12897;50.812;4.430;2023-02-15T10:30:52;66.05;;;24.85;;
24799;SDS011;12897;50.812;4.430;2023-02-15T10:38:44;53.28;;;25.68;;
24799;SDS011;12897;50.812;4.430;2023-02-15T10:41:25;53.30;;;24.65;;
24799;SDS011;12897;50.812;4.430;2023-02-15T10:43:58;53.85;;;25.80;;
24799;SDS011;12897;50.812;4.430;2023-02-15T10:46:55;55.75;;;24.92;;
24799;SDS011;12897;50.812;4.430;2023-02-15T10:52:22;50.75;;;23.70;;
24799;SDS011;12897;50.812;4.430;2023-02-15T10:55:11;53.55;;;24.72;;
24799;SDS011;12897;50.812;4.430;2023-02-15T10:57:42;53.60;;;25.48;;
24799;SDS011;12897;50.812;4.430;2023-02-15T11:00:30;54.63;;;25.20;;
24799;SDS011;12897;50.812;4.430;2023-02-15T11:03:20;61.37;;;24.12;;
24799;SDS011;12897;50.812;4.430;2023-02-15T11:06:12;61.45;;;26.10;;
24799;SDS011;12897;50.812;4.430;2023-02-15T11:08:52;59.13;;;25.27;;
24799;SDS011;12897;50.812;4.430;2023-02-15T11:11:35;61.08;;;26.17;;
24799;SDS011;12897;50.812;4.430;2023-02-15T11:14:02;67.15;;;25.75;;
24799;SDS011;12897;50.812;4.430;2023-02-15T11:16:32;55.30;;;24.98;;
24799;SDS011;12897;50.812;4.430;2023-02-15T11:19:11;59.35;;;25.55;;
24799;SDS011;12897;50.812;4.430;2023-02-15T11:21:45;56.10;;;24.65;;
24799;SDS011;12897;50.812;4.430;2023-02-15T11:24:19;56.45;;;26.17;;
24799;SDS011;12897;50.812;4.430;2023-02-15T11:26:49;62.85;;;26.87;;
24799;SDS011;12897;50.812;4.430;2023-02-15T11:29:40;55.30;;;24.95;;
24799;SDS011;12897;50.812;4.430;2023-02-15T11:32:19;54.60;;;25.72;;
24799;SDS011;12897;50.812;4.430;2023-02-15T11:34:58;70.20;;;26.52;;
24799;SDS011;12897;50.812;4.430;2023-02-15T11:37:27;68.12;;;28.05;;
24799;SDS011;12897;50.812;4.430;2023-02-15T11:39:52;57.88;;;26.00;;
24799;SDS011;12897;50.812;4.430;2023-02-15T11:42:21;58.40;;;26.90;;
24799;SDS011;12897;50.812;4.430;2023-02-15T11:47:19;59.90;;;26.20;;
24799;SDS011;12897;50.812;4.430;2023-02-15T11:49:47;58.33;;;25.57;;
24799;SDS011;12897;50.812;4.430;2023-02-15T11:52:14;60.67;;;27.55;;
24799;SDS011;12897;50.812;4.430;2023-02-15T11:54:51;62.27;;;28.17;;
24799;SDS011;12897;50.812;4.430;2023-02-15T11:57:23;63.55;;;27.27;;
24799;SDS011;12897;50.812;4.430;2023-02-15T12:02:31;59.67;;;26.62;;
24799;SDS011;12897;50.812;4.430;2023-02-15T12:05:05;64.05;;;26.02;;
24799;SDS011;12897;50.812;4.430;2023-02-15T12:07:35;59.45;;;28.55;;
24799;SDS011;12897;50.812;4.430;2023-02-15T12:12:42;62.70;;;28.50;;
24799;SDS011;12897;50.812;4.430;2023-02-15T12:15:10;59.33;;;27.80;;
24799;SDS011;12897;50.812;4.430;2023-02-15T12:17:40;55.75;;;27.55;;
24799;SDS011;12897;50.812;4.430;2023-02-15T12:22:49;57.35;;;27.65;;
24799;SDS011;12897;50.812;4.430;2023-02-15T12:25:29;65.67;;;29.40;;
24799;SDS011;12897;50.812;4.430;2023-02-15T12:28:18;54.30;;;28.10;;
24799;SDS011;12897;50.812;4.430;2023-02-15T12:30:45;64.77;;;29.32;;
24799;SDS011;12897;50.812;4.430;2023-02-15T12:33:34;61.08;;;29.50;;
24799;SDS011;12897;50.812;4.430;2023-02-15T12:36:11;64.97;;;29.15;;
24799;SDS011;12897;50.812;4.430;2023-02-15T12:44:09;64.85;;;28.35;;
24799;SDS011;12897;50.812;4.430;2023-02-15T12:49:38;67.42;;;28.65;;
24799;SDS011;12897;50.812;4.430;2023-02-15T12:54:40;64.25;;;29.00;;
24799;SDS011;12897;50.812;4.430;2023-02-15T12:57:14;76.92;;;30.27;;
24799;SDS011;12897;50.812;4.430;2023-02-15T12:59:59;70.37;;;29.45;;
24799;SDS011;12897;50.812;4.430;2023-02-15T13:02:48;61.25;;;30.25;;
24799;SDS011;12897;50.812;4.430;2023-02-15T13:08:09;63.38;;;28.62;;
24799;SDS011;12897;50.812;4.430;2023-02-15T13:10:52;65.67;;;29.00;;
24799;SDS011;12897;50.812;4.430;2023-02-15T13:13:16;72.85;;;30.02;;
24799;SDS011;12897;50.812;4.430;2023-02-15T13:15:40;65.52;;;31.50;;
24799;SDS011;12897;50.812;4.430;2023-02-15T13:20:38;59.53;;;29.30;;
24799;SDS011;12897;50.812;4.430;2023-02-15T13:23:11;61.05;;;29.80;;
24799;SDS011;12897;50.812;4.430;2023-02-15T13:25:44;63.45;;;30.90;;
24799;SDS011;12897;50.812;4.430;2023-02-15T13:28:15;64.97;;;30.97;;
24799;SDS011;12897;50.812;4.430;2023-02-15T13:33:30;70.17;;;31.97;;
24799;SDS011;12897;50.812;4.430;2023-02-15T13:38:51;67.42;;;32.20;;
24799;SDS011;12897;50.812;4.430;2023-02-15T13:41:33;67.80;;;32.28;;
24799;SDS011;12897;50.812;4.430;2023-02-15T13:52:36;73.25;;;35.80;;
24799;SDS011;12897;50.812;4.430;2023-02-15T13:55:10;71.17;;;33.13;;
24799;SDS011;12897;50.812;4.430;2023-02-15T14:00:35;75.78;;;36.13;;
24799;SDS011;12897;50.812;4.430;2023-02-15T14:05:53;65.10;;;34.00;;
24799;SDS011;12897;50.812;4.430;2023-02-15T14:11:29;74.77;;;34.80;;
24799;SDS011;12897;50.812;4.430;2023-02-15T14:19:31;76.82;;;33.23;;
24799;SDS011;12897;50.812;4.430;2023-02-15T14:22:00;77.65;;;33.95;;
24799;SDS011;12897;50.812;4.430;2023-02-15T14:24:37;68.05;;;33.63;;
24799;SDS011;12897;50.812;4.430;2023-02-15T14:27:17;89.47;;;34.80;;
24799;SDS011;12897;50.812;4.430;2023-02-15T14:29:54;64.65;;;32.88;;
24799;SDS011;12897;50.812;4.430;2023-02-15T14:32:31;68.00;;;30.68;;
24799;SDS011;12897;50.812;4.430;2023-02-15T14:35:19;62.73;;;31.00;;
24799;SDS011;12897;50.812;4.430;2023-02-15T14:37:51;62.85;;;30.97;;
24799;SDS011;12897;50.812;4.430;2023-02-15T14:46:27;66.72;;;32.90;;
24799;SDS011;12897;50.812;4.430;2023-02-15T14:49:06;64.50;;;32.95;;
24799;SDS011;12897;50.812;4.430;2023-02-15T15:04:56;69.72;;;34.65;;
24799;SDS011;12897;50.812;4.430;2023-02-15T15:07:37;72.40;;;35.88;;
24799;SDS011;12897;50.812;4.430;2023-02-15T15:12:47;71.15;;;33.70;;
24799;SDS011;12897;50.812;4.430;2023-02-15T15:20:51;74.25;;;34.38;;
24799;SDS011;12897;50.812;4.430;2023-02-15T15:25:57;64.65;;;34.73;;
24799;SDS011;12897;50.812;4.430;2023-02-15T15:48:30;77.90;;;39.65;;
24799;SDS011;12897;50.812;4.430;2023-02-15T15:53:29;84.47;;;37.50;;
24799;SDS011;12897;50.812;4.430;2023-02-15T15:56:00;80.92;;;38.75;;
24799;SDS011;12897;50.812;4.430;2023-02-15T15:58:30;77.10;;;38.38;;
24799;SDS011;12897;50.812;4.430;2023-02-15T16:00:59;75.55;;;37.40;;
24799;SDS011;12897;50.812;4.430;2023-02-15T16:03:53;81.17;;;39.70;;
24799;SDS011;12897;50.812;4.430;2023-02-15T16:06:29;82.80;;;38.42;;
24799;SDS011;12897;50.812;4.430;2023-02-15T16:09:22;83.45;;;40.67;;
24799;SDS011;12897;50.812;4.430;2023-02-15T16:11:35;86.22;;;38.30;;
24799;SDS011;12897;50.812;4.430;2023-02-15T16:14:11;81.10;;;39.08;;
24799;SDS011;12897;50.812;4.430;2023-02-15T16:16:39;71.80;;;37.15;;
24799;SDS011;12897;50.812;4.430;2023-02-15T16:19:15;72.80;;;37.08;;
24799;SDS011;12897;50.812;4.430;2023-02-15T16:21:42;80.35;;;39.33;;
24799;SDS011;12897;50.812;4.430;2023-02-15T16:29:38;75.00;;;37.03;;
24799;SDS011;12897;50.812;4.430;2023-02-15T16:32:14;80.12;;;38.60;;
24799;SDS011;12897;50.812;4.430;2023-02-15T16:34:52;79.12;;;39.42;;
24799;SDS011;12897;50.812;4.430;2023-02-15T16:37:31;80.25;;;40.08;;
24799;SDS011;12897;50.812;4.430;2023-02-15T16:40:00;77.50;;;39.35;;
24799;SDS011;12897;50.812;4.430;2023-02-15T16:42:27;84.07;;;40.10;;
24799;SDS011;12897;50.812;4.430;2023-02-15T16:47:36;82.92;;;40.40;;
24799;SDS011;12897;50.812;4.430;2023-02-15T16:50:16;80.75;;;39.48;;
24799;SDS011;12897;50.812;4.430;2023-02-15T16:52:45;82.30;;;37.50;;
24799;SDS011;12897;50.812;4.430;2023-02-15T16:56:13;77.97;;;36.93;;
24799;SDS011;12897;50.812;4.430;2023-02-15T16:57:55;91.42;;;39.53;;
24799;SDS011;12897;50.812;4.430;2023-02-15T17:00:26;93.20;;;41.10;;
24799;SDS011;12897;50.812;4.430;2023-02-15T17:03:00;83.97;;;41.35;;
24799;SDS011;12897;50.812;4.430;2023-02-15T17:05:32;86.47;;;40.73;;
24799;SDS011;12897;50.812;4.430;2023-02-15T17:08:28;92.08;;;39.42;;
24799;SDS011;12897;50.812;4.430;2023-02-15T17:16:36;85.15;;;41.28;;
24799;SDS011;12897;50.812;4.430;2023-02-15T17:19:19;89.58;;;40.03;;
24799;SDS011;12897;50.812;4.430;2023-02-15T17:22:04;94.97;;;43.35;;
24799;SDS011;12897;50.812;4.430;2023-02-15T17:27:28;81.40;;;40.15;;
24799;SDS011;12897;50.812;4.430;2023-02-15T17:29:40;85.28;;;39.60;;
24799;SDS011;12897;50.812;4.430;2023-02-15T17:32:19;83.05;;;39.88;;
24799;SDS011;12897;50.812;4.430;2023-02-15T17:34:50;82.80;;;41.02;;
24799;SDS011;12897;50.812;4.430;2023-02-15T17:37:26;83.00;;;41.75;;
24799;SDS011;12897;50.812;4.430;2023-02-15T17:39:58;87.67;;;40.98;;
24799;SDS011;12897;50.812;4.430;2023-02-15T17:42:27;88.83;;;42.87;;
24799;SDS011;12897;50.812;4.430;2023-02-15T17:44:55;91.55;;;43.38;;
24799;SDS011;12897;50.812;4.430;2023-02-15T17:47:23;83.62;;;42.10;;
24799;SDS011;12897;50.812;4.430;2023-02-15T17:49:53;82.42;;;40.20;;
24799;SDS011;12897;50.812;4.430;2023-02-15T17:52:21;89.30;;;39.85;;
24799;SDS011;12897;50.812;4.430;2023-02-15T17:54:50;86.17;;;41.18;;
24799;SDS011;12897;50.812;4.430;2023-02-15T17:57:35;80.67;;;39.67;;
24799;SDS011;12897;50.812;4.430;2023-02-15T18:00:04;80.07;;;39.38;;
24799;SDS011;12897;50.812;4.430;2023-02-15T18:02:51;82.53;;;40.03;;
24799;SDS011;12897;50.812;4.430;2023-02-15T18:05:36;84.85;;;42.13;;
24799;SDS011;12897;50.812;4.430;2023-02-15T18:08:24;80.20;;;39.35;;
24799;SDS011;12897;50.812;4.430;2023-02-15T18:11:11;80.80;;;39.45;;
24799;SDS011;12897;50.812;4.430;2023-02-15T18:13:57;85.03;;;41.98;;
24799;SDS011;12897;50.812;4.430;2023-02-15T18:16:26;76.20;;;40.60;;
24799;SDS011;12897;50.812;4.430;2023-02-15T18:18:57;78.22;;;41.08;;
24799;SDS011;12897;50.812;4.430;2023-02-15T18:21:25;81.28;;;40.92;;
24799;SDS011;12897;50.812;4.430;2023-02-15T18:23:53;84.32;;;42.53;;
24799;SDS011;12897;50.812;4.430;2023-02-15T18:26:25;93.92;;;40.52;;
24799;SDS011;12897;50.812;4.430;2023-02-15T18:28:50;79.15;;;39.95;;
24799;SDS011;12897;50.812;4.430;2023-02-15T18:31:18;80.38;;;41.90;;
24799;SDS011;12897;50.812;4.430;2023-02-15T18:33:47;86.05;;;43.73;;
24799;SDS011;12897;50.812;4.430;2023-02-15T18:36:25;81.55;;;42.55;;
24799;SDS011;12897;50.812;4.430;2023-02-15T18:38:53;87.88;;;42.93;;
24799;SDS011;12897;50.812;4.430;2023-02-15T18:41:24;81.30;;;43.33;;
24799;SDS011;12897;50.812;4.430;2023-02-15T18:43:52;96.15;;;44.85;;
24799;SDS011;12897;50.812;4.430;2023-02-15T18:46:20;92.97;;;45.90;;
24799;SDS011;12897;50.812;4.430;2023-02-15T18:48:48;83.65;;;43.50;;
24799;SDS011;12897;50.812;4.430;2023-02-15T18:51:16;94.35;;;44.08;;
24799;SDS011;12897;50.812;4.430;2023-02-15T18:56:14;89.10;;;44.05;;